Kivalina, Alaska

11:02 PM AKDT on September 24, 2016 (GMT -0800)
Noatak | | Change Station

Elev 85 ft 67.57 °N, 162.98 °W | Updated 2 hours ago

Clear
Clear
33 °F
Feels Like 30 °F
N
4
Wind Variable Wind from West

Today
High -- | Low -- °F
--% Chance of Precip.
Yesterday
High -- | Low -- °F
Precip. -- in
Pressure 29.86 in
Visibility 10.0 miles
Clouds Clear
Windchill 30 °F
Dew Point 23 °F
Humidity 66%
Rainfall 0.00 in
Snow Depth Not available.
8:49 AM 8:48 PM
Waning Crescent, 30% visible
METAR PAWN 250456Z AUTO 28003KT 10SM CLR 01/M05 A2982 RMK AO2 SLP111 T00061050 FZRANO
Pressure 29.86 in
Visibility 10.0 miles
Clouds Clear
Windchill 30 °F
Dew Point 23 °F
Humidity 66%
Rainfall 0.00 in
Snow Depth Not available.
8:49 AM 8:48 PM
Waning Crescent, 30% visible
METAR PAWN 250456Z AUTO 28003KT 10SM CLR 01/M05 A2982 RMK AO2 SLP111 T00061050 FZRANO

10-Day Weather Forecast

Almanac

Astronomy

Sep. 24, 2016 Rise Set
Actual Time
Civil Twilight
Nautical Twilight
Astronomical Twilight
Moon
Length of Visible Light
Length of Day
Tomorrow will be .
, % of the Moon is Illuminated

Today's Extremes

State Highs State Lows

Community

WunderPhotos

Upload Photos

1,941,554 photos uploaded!

WunderBlog® & News

Nearby

Air Quality

  Air Quality AQ Index Pollutant
Not available.

Snow Depth

Station Depth Elevation

Earthquake Activity

City Distance Mag. Time & Date
Minimum magnitude displayed is 2.5.

Coastal Water Temperatures

Place Temperature

Stations

Nearby Weather Stations

Station Location Temp. Windchill Dew Point Humidity Wind Precip. Elev Updated Type
                   

Watches & Warnings

There are currently no watches in effect.